createdAt,value
2023-02-21T00:02:58.367Z,6.3
2023-02-21T00:08:04.946Z,6.3
2023-02-21T00:13:10.570Z,6.3
2023-02-21T00:18:16.895Z,6.7
2023-02-21T00:23:22.353Z,6
2023-02-21T00:28:28.667Z,6.7
2023-02-21T00:33:34.994Z,6
2023-02-21T00:38:41.358Z,6.7
2023-02-21T00:43:47.634Z,6.3
2023-02-21T00:48:53.972Z,6.7
2023-02-21T00:54:00.289Z,6
2023-02-21T00:59:06.615Z,6.3
2023-02-21T01:04:12.926Z,6.3
2023-02-21T01:09:19.286Z,7
2023-02-21T01:14:24.698Z,6.3
2023-02-21T01:19:31.021Z,6.7
2023-02-21T01:24:37.386Z,6.7
2023-02-21T01:29:43.695Z,6.7
2023-02-21T01:34:50.005Z,6
2023-02-21T01:39:56.338Z,6.3
2023-02-21T01:45:02.660Z,6.7
2023-02-21T01:50:08.968Z,7
2023-02-21T01:55:15.304Z,6.7
2023-02-21T02:00:21.630Z,6
2023-02-21T02:05:27.939Z,6.3
2023-02-21T02:15:40.595Z,6.7
2023-02-21T02:20:46.074Z,6.3
2023-02-21T02:25:52.359Z,6.3
2023-02-21T02:30:58.692Z,7
2023-02-21T02:36:05.012Z,6.3
2023-02-21T02:46:17.668Z,6.3
2023-02-21T02:51:23.985Z,6.7
2023-02-21T02:56:30.308Z,6
2023-02-21T03:01:36.622Z,6.7
2023-02-21T03:06:42.961Z,6.7
2023-02-21T03:11:49.295Z,6.7
2023-02-21T03:16:55.624Z,5.7
2023-02-21T03:22:01.936Z,6.7
2023-02-21T03:27:08.284Z,6.7
2023-02-21T03:32:13.697Z,7
2023-02-21T03:37:20.019Z,6.7
2023-02-21T03:42:26.342Z,7
2023-02-21T03:47:32.674Z,6.7
2023-02-21T03:52:38.999Z,6.3
2023-02-21T03:57:45.325Z,6.7
2023-02-21T04:02:51.655Z,6.7
2023-02-21T04:07:57.972Z,6.7
2023-02-21T04:13:04.292Z,6.3
2023-02-21T04:18:10.627Z,7
2023-02-21T04:23:16.970Z,7
2023-02-21T04:28:23.298Z,6.3
2023-02-21T04:33:29.598Z,6.3
2023-02-21T04:38:35.054Z,6.3
2023-02-21T04:43:41.424Z,6.3
2023-02-21T04:48:47.688Z,6.7
2023-02-21T04:53:54.061Z,7
2023-02-21T04:59:00.364Z,6.7
2023-02-21T05:04:06.646Z,6.7
2023-02-21T05:09:13.053Z,7
2023-02-21T05:14:19.320Z,6.3
2023-02-21T05:19:25.658Z,6.7
2023-02-21T05:24:31.951Z,6.7
2023-02-21T05:29:38.283Z,6.7
2023-02-21T05:34:44.590Z,7.3
2023-02-21T05:39:50.927Z,6.3
2023-02-21T05:44:56.371Z,7.3
2023-02-21T05:50:02.698Z,6.7
2023-02-21T05:55:09.036Z,6.7
2023-02-21T06:00:15.337Z,6.7
2023-02-21T06:05:21.649Z,6.7
2023-02-21T06:10:27.989Z,7
2023-02-21T06:15:34.362Z,7
2023-02-21T06:20:40.633Z,7.6
2023-02-21T06:25:46.965Z,6.7
2023-02-21T06:30:53.279Z,6.7
2023-02-21T06:35:59.592Z,6.7
2023-02-21T06:41:05.918Z,7
2023-02-21T06:46:12.253Z,6.7
2023-02-21T06:51:17.711Z,6.7
2023-02-21T06:56:24.029Z,6.3
2023-02-21T07:01:30.437Z,6.7
2023-02-21T07:06:36.691Z,6.7
2023-02-21T07:11:43.014Z,6.7
2023-02-21T07:16:49.324Z,6.7
2023-02-21T07:21:55.633Z,7
2023-02-21T07:27:01.942Z,6.7
2023-02-21T07:32:08.286Z,7
2023-02-21T07:37:14.625Z,6.3
2023-02-21T07:42:20.940Z,6.7
2023-02-21T07:47:27.268Z,6.7
2023-02-21T07:52:33.571Z,6.7
2023-02-21T07:57:39.901Z,7.3
2023-02-21T08:02:45.345Z,6.7
2023-02-21T08:07:51.718Z,7
2023-02-21T08:12:58.025Z,6.7
2023-02-21T08:18:04.298Z,6.7
2023-02-21T08:23:10.631Z,6.7
2023-02-21T08:28:16.952Z,7.3
2023-02-21T08:33:23.275Z,7
2023-02-21T08:38:29.730Z,6.7
2023-02-21T08:43:35.931Z,7
2023-02-21T08:48:42.320Z,6.3
2023-02-21T08:53:48.628Z,6.7
2023-02-21T08:58:55.156Z,6.7
2023-02-21T09:04:01.285Z,6.7
2023-02-21T09:14:13.940Z,6.7
2023-02-21T09:19:19.368Z,6.7
2023-02-21T09:24:25.769Z,7
2023-02-21T09:29:32.020Z,6
2023-02-21T09:34:38.358Z,7
2023-02-21T09:39:44.672Z,6.7
2023-02-21T09:44:51.004Z,6.7
2023-02-21T09:49:57.324Z,7
2023-02-21T09:55:03.631Z,6.7
2023-02-21T10:00:09.959Z,6.7
2023-02-21T10:05:16.433Z,7
2023-02-21T10:10:22.608Z,6.7
2023-02-21T10:15:28.924Z,6.7
2023-02-21T10:20:35.254Z,7
2023-02-21T10:30:47.028Z,7
2023-02-21T10:35:53.350Z,6.7
2023-02-21T10:40:59.654Z,6.7
2023-02-21T10:46:06.162Z,6.7
2023-02-21T10:51:12.331Z,7
2023-02-21T10:56:18.628Z,6.7
2023-02-21T11:01:24.964Z,6.7
2023-02-21T11:06:31.409Z,7.3
2023-02-21T11:11:37.597Z,7.3
2023-02-21T11:16:43.920Z,7.3
2023-02-21T11:26:56.565Z,6.7
2023-02-21T11:32:02.902Z,6.7
2023-02-21T11:37:08.350Z,7.3
2023-02-21T11:42:14.668Z,7.3
2023-02-21T11:47:20.984Z,7.3
2023-02-21T11:52:27.314Z,7.3
2023-02-21T11:57:33.636Z,6.7
2023-02-21T12:02:39.984Z,7
2023-02-21T12:07:46.280Z,7
2023-02-21T12:12:52.594Z,7.3
2023-02-21T12:17:58.944Z,6.7
2023-02-21T12:23:05.238Z,6.7
2023-02-21T12:28:11.569Z,7
2023-02-21T12:33:17.894Z,7
2023-02-21T12:38:24.237Z,7
2023-02-21T12:43:30.552Z,7
2023-02-21T12:48:36.860Z,7.3
2023-02-21T12:53:43.221Z,7
2023-02-21T12:58:49.549Z,7.6
2023-02-21T13:09:02.172Z,7.3
2023-02-21T13:14:08.498Z,7.3
2023-02-21T13:24:21.125Z,7
2023-02-21T13:29:27.480Z,7
2023-02-21T13:34:33.837Z,7
2023-02-21T13:39:40.141Z,7.3
2023-02-21T13:44:46.411Z,7.3
2023-02-21T13:49:52.739Z,7.6
2023-02-21T13:54:59.065Z,7.6
2023-02-21T14:00:05.394Z,7.3
2023-02-21T14:05:11.711Z,7.3
2023-02-21T14:10:17.156Z,7.6
2023-02-21T14:20:29.805Z,7.3
2023-02-21T14:25:36.111Z,7
2023-02-21T14:30:42.440Z,7.3
2023-02-21T14:35:48.773Z,6.7
2023-02-21T14:40:55.102Z,7.3
2023-02-21T14:46:01.415Z,7.6
2023-02-21T14:51:07.744Z,7.3
2023-02-21T14:56:14.057Z,7.3
2023-02-21T15:01:20.379Z,7.6
2023-02-21T15:11:33.024Z,8
2023-02-21T15:16:39.345Z,7.3
2023-02-21T15:21:45.675Z,7
2023-02-21T15:26:51.978Z,7.6
2023-02-21T15:31:58.313Z,8
2023-02-21T15:37:04.643Z,7
2023-02-21T15:42:11.027Z,7.3
2023-02-21T15:47:17.284Z,7.3
2023-02-21T15:52:23.619Z,7.6
2023-02-21T15:57:29.919Z,7.6
2023-02-21T16:02:36.257Z,8
2023-02-21T16:07:41.704Z,7.6
2023-02-21T16:12:48.034Z,7.3
2023-02-21T16:17:54.328Z,7.6
2023-02-21T16:23:00.655Z,7.6
2023-02-21T16:28:06.990Z,7.6
2023-02-21T16:33:13.312Z,7.6
2023-02-21T16:38:19.662Z,7.6
2023-02-21T16:43:25.962Z,7.3
2023-02-21T16:48:32.278Z,7.3
2023-02-21T16:53:38.602Z,7.3
2023-02-21T16:58:44.919Z,7.6
2023-02-21T17:03:51.328Z,7.6
2023-02-21T17:08:57.651Z,7.6
2023-02-21T17:14:03.089Z,8
2023-02-21T17:19:09.432Z,7.6
2023-02-21T17:24:15.744Z,7.3
2023-02-21T17:29:22.054Z,7.3
2023-02-21T17:34:28.384Z,8
2023-02-21T17:39:34.711Z,7.3
2023-02-21T17:44:41.040Z,7.3
2023-02-21T17:49:47.350Z,7.3
2023-02-21T17:54:53.668Z,7.3
2023-02-21T17:59:59.992Z,7.3
2023-02-21T18:05:06.309Z,7.6
2023-02-21T18:10:12.638Z,7.6
2023-02-21T18:15:18.957Z,7.6
2023-02-21T18:20:25.301Z,8.3
2023-02-21T18:25:31.613Z,7.6
2023-02-21T18:30:37.938Z,7.3
2023-02-21T18:35:44.271Z,7.6
2023-02-21T18:40:50.592Z,7.6
2023-02-21T18:45:56.926Z,7.3
2023-02-21T18:51:03.257Z,7.3
2023-02-21T18:56:09.567Z,7
2023-02-21T19:01:15.889Z,7.6
2023-02-21T19:06:22.214Z,7.3
2023-02-21T19:11:28.573Z,7.3
2023-02-21T19:16:34.869Z,7.3
2023-02-21T19:21:41.190Z,8
2023-02-21T19:26:47.497Z,7.3
2023-02-21T19:37:00.155Z,7.6
2023-02-21T19:42:06.469Z,7.3
2023-02-21T19:47:12.795Z,8
2023-02-21T19:52:19.113Z,7.3
2023-02-21T19:57:25.442Z,7.3
2023-02-21T20:02:31.774Z,7.6
2023-02-21T20:07:38.097Z,7.3
2023-02-21T20:12:44.425Z,7.3
2023-02-21T20:17:50.742Z,7.6
2023-02-21T20:22:57.324Z,8
2023-02-21T20:28:03.903Z,7.6
2023-02-21T20:33:10.457Z,7.3
2023-02-21T20:38:17.044Z,7.6
2023-02-21T20:43:23.624Z,7.6
2023-02-21T20:48:30.172Z,7
2023-02-21T20:53:36.746Z,7.6
2023-02-21T20:58:43.307Z,7.3
2023-02-21T21:03:49.896Z,7.3
2023-02-21T21:08:56.476Z,7.6
2023-02-21T21:14:03.038Z,7.3
2023-02-21T21:19:09.600Z,7.6
2023-02-21T21:24:16.181Z,7.3
2023-02-21T21:29:23.371Z,7.3
2023-02-21T21:34:30.561Z,7.6
2023-02-21T21:39:37.333Z,7.6
2023-02-21T21:44:44.514Z,7.3
2023-02-21T21:49:51.697Z,7
2023-02-21T21:54:58.867Z,7
2023-02-21T22:00:06.053Z,7.3
2023-02-21T22:05:13.235Z,7.3
2023-02-21T22:10:20.437Z,8.3
2023-02-21T22:15:27.637Z,7.6
2023-02-21T22:20:34.830Z,7.3
2023-02-21T22:25:42.012Z,7.3
2023-02-21T22:30:49.179Z,7.3
2023-02-21T22:35:56.375Z,7.3
2023-02-21T22:41:03.549Z,7.6
2023-02-21T22:46:10.738Z,7.3
2023-02-21T22:51:17.479Z,7
2023-02-21T22:56:24.685Z,7.3
2023-02-21T23:01:31.855Z,7
2023-02-21T23:06:39.060Z,7.3
2023-02-21T23:11:46.263Z,7
2023-02-21T23:16:53.446Z,7.3
2023-02-21T23:22:00.629Z,7
2023-02-21T23:27:07.803Z,7.6
2023-02-21T23:32:14.972Z,7
2023-02-21T23:37:22.170Z,7.3
2023-02-21T23:42:29.360Z,7.3
2023-02-21T23:47:36.560Z,7.3
2023-02-21T23:52:43.745Z,7.3
2023-02-21T23:57:50.953Z,7.3
